sensor_id;sensor_type;location;lat;lon;timestamp;P1;durP1;ratioP1;P2;durP2;ratioP2
9892;SDS011;4985;49.092;8.542;2022-07-12T00:01:39;3.28;;;1.37;;
9892;SDS011;4985;49.092;8.542;2022-07-12T00:04:06;1.60;;;1.50;;
9892;SDS011;4985;49.092;8.542;2022-07-12T00:06:32;2.45;;;1.55;;
9892;SDS011;4985;49.092;8.542;2022-07-12T00:09:00;2.37;;;1.30;;
9892;SDS011;4985;49.092;8.542;2022-07-12T00:11:27;2.50;;;1.35;;
9892;SDS011;4985;49.092;8.542;2022-07-12T00:13:53;1.50;;;1.40;;
9892;SDS011;4985;49.092;8.542;2022-07-12T00:16:20;2.37;;;1.35;;
9892;SDS011;4985;49.092;8.542;2022-07-12T00:18:47;1.40;;;1.30;;
9892;SDS011;4985;49.092;8.542;2022-07-12T00:21:14;1.35;;;1.25;;
9892;SDS011;4985;49.092;8.542;2022-07-12T00:23:41;1.30;;;1.20;;
9892;SDS011;4985;49.092;8.542;2022-07-12T00:26:08;1.65;;;1.30;;
9892;SDS011;4985;49.092;8.542;2022-07-12T00:28:35;2.10;;;1.30;;
9892;SDS011;4985;49.092;8.542;2022-07-12T00:31:02;1.75;;;1.50;;
9892;SDS011;4985;49.092;8.542;2022-07-12T00:33:29;2.17;;;1.30;;
9892;SDS011;4985;49.092;8.542;2022-07-12T00:35:56;1.48;;;1.37;;
9892;SDS011;4985;49.092;8.542;2022-07-12T00:38:22;1.85;;;1.50;;
9892;SDS011;4985;49.092;8.542;2022-07-12T00:40:49;2.40;;;1.30;;
9892;SDS011;4985;49.092;8.542;2022-07-12T00:43:17;1.48;;;1.30;;
9892;SDS011;4985;49.092;8.542;2022-07-12T00:45:43;1.48;;;1.37;;
9892;SDS011;4985;49.092;8.542;2022-07-12T00:48:10;2.00;;;1.50;;
9892;SDS011;4985;49.092;8.542;2022-07-12T00:50:38;3.55;;;1.60;;
9892;SDS011;4985;49.092;8.542;2022-07-12T00:53:06;1.98;;;1.33;;
9892;SDS011;4985;49.092;8.542;2022-07-12T00:55:34;2.53;;;1.50;;
9892;SDS011;4985;49.092;8.542;2022-07-12T00:58:00;1.58;;;1.45;;
9892;SDS011;4985;49.092;8.542;2022-07-12T01:00:28;1.58;;;1.33;;
9892;SDS011;4985;49.092;8.542;2022-07-12T01:02:56;1.87;;;1.62;;
9892;SDS011;4985;49.092;8.542;2022-07-12T01:05:24;1.92;;;1.30;;
9892;SDS011;4985;49.092;8.542;2022-07-12T01:07:53;2.15;;;1.60;;
9892;SDS011;4985;49.092;8.542;2022-07-12T01:10:21;1.40;;;1.27;;
9892;SDS011;4985;49.092;8.542;2022-07-12T01:12:48;1.60;;;1.48;;
9892;SDS011;4985;49.092;8.542;2022-07-12T01:15:15;1.75;;;1.30;;
9892;SDS011;4985;49.092;8.542;2022-07-12T01:17:44;1.50;;;1.33;;
9892;SDS011;4985;49.092;8.542;2022-07-12T01:20:11;2.17;;;1.60;;
9892;SDS011;4985;49.092;8.542;2022-07-12T01:22:39;1.60;;;1.23;;
9892;SDS011;4985;49.092;8.542;2022-07-12T01:25:09;1.65;;;1.40;;
9892;SDS011;4985;49.092;8.542;2022-07-12T01:27:37;2.40;;;1.62;;
9892;SDS011;4985;49.092;8.542;2022-07-12T01:30:04;2.47;;;1.70;;
9892;SDS011;4985;49.092;8.542;2022-07-12T01:32:32;2.03;;;1.60;;
9892;SDS011;4985;49.092;8.542;2022-07-12T01:35:00;1.27;;;1.20;;
9892;SDS011;4985;49.092;8.542;2022-07-12T01:37:28;2.12;;;1.73;;
9892;SDS011;4985;49.092;8.542;2022-07-12T01:39:58;2.55;;;1.73;;
9892;SDS011;4985;49.092;8.542;2022-07-12T01:42:27;13.75;;;1.67;;
9892;SDS011;4985;49.092;8.542;2022-07-12T01:44:55;3.20;;;1.80;;
9892;SDS011;4985;49.092;8.542;2022-07-12T01:47:22;1.70;;;1.50;;
9892;SDS011;4985;49.092;8.542;2022-07-12T01:49:50;2.47;;;1.33;;
9892;SDS011;4985;49.092;8.542;2022-07-12T01:52:17;1.40;;;1.30;;
9892;SDS011;4985;49.092;8.542;2022-07-12T01:54:45;1.55;;;1.45;;
9892;SDS011;4985;49.092;8.542;2022-07-12T01:57:12;2.80;;;1.60;;
9892;SDS011;4985;49.092;8.542;2022-07-12T01:59:40;1.70;;;1.60;;
9892;SDS011;4985;49.092;8.542;2022-07-12T02:02:08;1.48;;;1.37;;
9892;SDS011;4985;49.092;8.542;2022-07-12T02:04:35;1.30;;;1.20;;
9892;SDS011;4985;49.092;8.542;2022-07-12T02:07:02;2.12;;;1.50;;
9892;SDS011;4985;49.092;8.542;2022-07-12T02:09:29;1.60;;;1.42;;
9892;SDS011;4985;49.092;8.542;2022-07-12T02:11:56;1.50;;;1.40;;
9892;SDS011;4985;49.092;8.542;2022-07-12T02:14:23;1.95;;;1.60;;
9892;SDS011;4985;49.092;8.542;2022-07-12T02:16:52;2.87;;;1.40;;
9892;SDS011;4985;49.092;8.542;2022-07-12T02:19:18;2.42;;;1.62;;
9892;SDS011;4985;49.092;8.542;2022-07-12T02:21:45;1.40;;;1.30;;
9892;SDS011;4985;49.092;8.542;2022-07-12T02:24:11;1.75;;;1.20;;
9892;SDS011;4985;49.092;8.542;2022-07-12T02:26:38;1.50;;;1.33;;
9892;SDS011;4985;49.092;8.542;2022-07-12T02:29:05;3.10;;;1.58;;
9892;SDS011;4985;49.092;8.542;2022-07-12T02:31:32;1.42;;;1.33;;
9892;SDS011;4985;49.092;8.542;2022-07-12T02:34:00;1.95;;;1.58;;
9892;SDS011;4985;49.092;8.542;2022-07-12T02:36:27;4.65;;;1.48;;
9892;SDS011;4985;49.092;8.542;2022-07-12T02:38:53;1.37;;;1.23;;
9892;SDS011;4985;49.092;8.542;2022-07-12T02:41:20;1.55;;;1.40;;
9892;SDS011;4985;49.092;8.542;2022-07-12T02:43:47;1.35;;;1.25;;
9892;SDS011;4985;49.092;8.542;2022-07-12T02:46:13;3.87;;;1.60;;
9892;SDS011;4985;49.092;8.542;2022-07-12T02:48:40;1.77;;;1.30;;
9892;SDS011;4985;49.092;8.542;2022-07-12T02:51:09;1.23;;;1.12;;
9892;SDS011;4985;49.092;8.542;2022-07-12T02:53:36;2.00;;;1.20;;
9892;SDS011;4985;49.092;8.542;2022-07-12T02:56:03;1.65;;;1.33;;
9892;SDS011;4985;49.092;8.542;2022-07-12T02:58:30;3.03;;;1.37;;
9892;SDS011;4985;49.092;8.542;2022-07-12T03:00:56;1.35;;;1.25;;
9892;SDS011;4985;49.092;8.542;2022-07-12T03:03:23;4.47;;;1.45;;
9892;SDS011;4985;49.092;8.542;2022-07-12T03:05:50;1.40;;;1.30;;
9892;SDS011;4985;49.092;8.542;2022-07-12T03:08:18;1.98;;;1.45;;
9892;SDS011;4985;49.092;8.542;2022-07-12T03:10:45;1.60;;;1.40;;
9892;SDS011;4985;49.092;8.542;2022-07-12T03:13:11;1.70;;;1.50;;
9892;SDS011;4985;49.092;8.542;2022-07-12T03:15:38;1.92;;;1.42;;
9892;SDS011;4985;49.092;8.542;2022-07-12T03:18:04;1.12;;;1.10;;
9892;SDS011;4985;49.092;8.542;2022-07-12T03:20:31;1.35;;;1.25;;
9892;SDS011;4985;49.092;8.542;2022-07-12T03:22:58;1.40;;;1.10;;
9892;SDS011;4985;49.092;8.542;2022-07-12T03:25:26;1.80;;;1.33;;
9892;SDS011;4985;49.092;8.542;2022-07-12T03:27:52;1.20;;;1.10;;
9892;SDS011;4985;49.092;8.542;2022-07-12T03:30:19;1.37;;;1.27;;
9892;SDS011;4985;49.092;8.542;2022-07-12T03:32:46;1.35;;;1.25;;
9892;SDS011;4985;49.092;8.542;2022-07-12T03:35:13;2.05;;;1.48;;
9892;SDS011;4985;49.092;8.542;2022-07-12T03:37:43;1.40;;;1.23;;
9892;SDS011;4985;49.092;8.542;2022-07-12T03:40:13;1.37;;;1.27;;
9892;SDS011;4985;49.092;8.542;2022-07-12T03:42:42;1.33;;;1.23;;
9892;SDS011;4985;49.092;8.542;2022-07-12T03:45:10;2.42;;;1.37;;
9892;SDS011;4985;49.092;8.542;2022-07-12T03:47:38;3.78;;;1.30;;
9892;SDS011;4985;49.092;8.542;2022-07-12T03:50:05;3.95;;;1.52;;
9892;SDS011;4985;49.092;8.542;2022-07-12T03:52:33;1.75;;;1.65;;
9892;SDS011;4985;49.092;8.542;2022-07-12T03:55:00;1.40;;;1.30;;
9892;SDS011;4985;49.092;8.542;2022-07-12T03:57:28;1.65;;;1.23;;
9892;SDS011;4985;49.092;8.542;2022-07-12T03:59:56;1.70;;;1.60;;
9892;SDS011;4985;49.092;8.542;2022-07-12T04:02:23;3.58;;;1.33;;
9892;SDS011;4985;49.092;8.542;2022-07-12T04:04:50;1.58;;;1.42;;
9892;SDS011;4985;49.092;8.542;2022-07-12T04:07:16;3.12;;;1.67;;
9892;SDS011;4985;49.092;8.542;2022-07-12T04:09:43;1.85;;;1.58;;
9892;SDS011;4985;49.092;8.542;2022-07-12T04:12:10;1.83;;;1.40;;
9892;SDS011;4985;49.092;8.542;2022-07-12T04:14:36;2.35;;;1.58;;
9892;SDS011;4985;49.092;8.542;2022-07-12T04:17:05;2.15;;;1.55;;
9892;SDS011;4985;49.092;8.542;2022-07-12T04:19:31;1.50;;;1.40;;
9892;SDS011;4985;49.092;8.542;2022-07-12T04:21:59;2.65;;;1.70;;
9892;SDS011;4985;49.092;8.542;2022-07-12T04:24:26;4.43;;;1.98;;
9892;SDS011;4985;49.092;8.542;2022-07-12T04:26:52;2.08;;;1.45;;
9892;SDS011;4985;49.092;8.542;2022-07-12T04:29:19;2.92;;;1.40;;
9892;SDS011;4985;49.092;8.542;2022-07-12T04:31:46;1.62;;;1.27;;
9892;SDS011;4985;49.092;8.542;2022-07-12T04:34:15;1.30;;;1.20;;
9892;SDS011;4985;49.092;8.542;2022-07-12T04:36:42;4.43;;;1.58;;
9892;SDS011;4985;49.092;8.542;2022-07-12T04:39:09;1.92;;;1.45;;
9892;SDS011;4985;49.092;8.542;2022-07-12T04:41:36;3.33;;;1.65;;
9892;SDS011;4985;49.092;8.542;2022-07-12T04:44:03;1.62;;;1.50;;
9892;SDS011;4985;49.092;8.542;2022-07-12T04:46:30;1.90;;;1.70;;
9892;SDS011;4985;49.092;8.542;2022-07-12T04:48:56;2.28;;;2.00;;
9892;SDS011;4985;49.092;8.542;2022-07-12T04:51:24;2.15;;;1.60;;
9892;SDS011;4985;49.092;8.542;2022-07-12T04:53:52;2.00;;;1.70;;
9892;SDS011;4985;49.092;8.542;2022-07-12T04:56:18;2.78;;;1.83;;
9892;SDS011;4985;49.092;8.542;2022-07-12T04:58:45;2.20;;;1.60;;
9892;SDS011;4985;49.092;8.542;2022-07-12T05:01:12;3.45;;;1.85;;
9892;SDS011;4985;49.092;8.542;2022-07-12T05:03:39;1.83;;;1.50;;
9892;SDS011;4985;49.092;8.542;2022-07-12T05:06:05;1.87;;;1.52;;
9892;SDS011;4985;49.092;8.542;2022-07-12T05:08:33;2.58;;;1.70;;
9892;SDS011;4985;49.092;8.542;2022-07-12T05:11:00;1.95;;;1.70;;
9892;SDS011;4985;49.092;8.542;2022-07-12T05:13:27;2.40;;;2.00;;
9892;SDS011;4985;49.092;8.542;2022-07-12T05:15:53;2.50;;;1.70;;
9892;SDS011;4985;49.092;8.542;2022-07-12T05:18:20;1.92;;;1.70;;
9892;SDS011;4985;49.092;8.542;2022-07-12T05:20:46;2.53;;;1.85;;
9892;SDS011;4985;49.092;8.542;2022-07-12T05:23:13;3.58;;;1.62;;
9892;SDS011;4985;49.092;8.542;2022-07-12T05:25:41;1.85;;;1.60;;
9892;SDS011;4985;49.092;8.542;2022-07-12T05:28:08;4.85;;;1.60;;
9892;SDS011;4985;49.092;8.542;2022-07-12T05:30:34;2.05;;;1.75;;
9892;SDS011;4985;49.092;8.542;2022-07-12T05:33:01;2.05;;;1.40;;
9892;SDS011;4985;49.092;8.542;2022-07-12T05:35:28;1.98;;;1.42;;
9892;SDS011;4985;49.092;8.542;2022-07-12T05:37:54;4.18;;;1.60;;
9892;SDS011;4985;49.092;8.542;2022-07-12T05:40:21;4.90;;;1.87;;
9892;SDS011;4985;49.092;8.542;2022-07-12T05:42:49;3.97;;;1.92;;
9892;SDS011;4985;49.092;8.542;2022-07-12T05:45:16;5.32;;;1.95;;
9892;SDS011;4985;49.092;8.542;2022-07-12T05:47:43;3.35;;;1.98;;
9892;SDS011;4985;49.092;8.542;2022-07-12T05:50:09;6.22;;;1.55;;
9892;SDS011;4985;49.092;8.542;2022-07-12T05:52:36;4.85;;;1.60;;
9892;SDS011;4985;49.092;8.542;2022-07-12T05:55:20;6.22;;;2.10;;
9892;SDS011;4985;49.092;8.542;2022-07-12T05:57:46;4.50;;;1.50;;
9892;SDS011;4985;49.092;8.542;2022-07-12T06:00:14;13.27;;;1.85;;
9892;SDS011;4985;49.092;8.542;2022-07-12T06:02:41;4.30;;;1.77;;
9892;SDS011;4985;49.092;8.542;2022-07-12T06:05:08;4.87;;;1.87;;
9892;SDS011;4985;49.092;8.542;2022-07-12T06:07:34;5.20;;;1.55;;
9892;SDS011;4985;49.092;8.542;2022-07-12T06:10:01;4.95;;;1.80;;
9892;SDS011;4985;49.092;8.542;2022-07-12T06:12:28;2.12;;;1.40;;
9892;SDS011;4985;49.092;8.542;2022-07-12T06:14:55;2.85;;;1.20;;
9892;SDS011;4985;49.092;8.542;2022-07-12T06:17:23;5.75;;;1.50;;
9892;SDS011;4985;49.092;8.542;2022-07-12T06:19:49;3.05;;;1.65;;
9892;SDS011;4985;49.092;8.542;2022-07-12T06:22:16;5.70;;;1.75;;
9892;SDS011;4985;49.092;8.542;2022-07-12T06:24:42;5.60;;;1.70;;
9892;SDS011;4985;49.092;8.542;2022-07-12T06:27:09;1.52;;;1.30;;
9892;SDS011;4985;49.092;8.542;2022-07-12T06:29:36;7.60;;;1.40;;
9892;SDS011;4985;49.092;8.542;2022-07-12T06:32:03;4.05;;;1.23;;
9892;SDS011;4985;49.092;8.542;2022-07-12T06:34:31;9.60;;;1.50;;
9892;SDS011;4985;49.092;8.542;2022-07-12T06:36:58;2.60;;;1.25;;
9892;SDS011;4985;49.092;8.542;2022-07-12T06:39:24;5.90;;;1.70;;
9892;SDS011;4985;49.092;8.542;2022-07-12T06:41:51;3.78;;;1.30;;
9892;SDS011;4985;49.092;8.542;2022-07-12T06:44:17;5.22;;;1.60;;
9892;SDS011;4985;49.092;8.542;2022-07-12T06:46:44;3.55;;;1.20;;
9892;SDS011;4985;49.092;8.542;2022-07-12T06:49:11;1.83;;;1.33;;
9892;SDS011;4985;49.092;8.542;2022-07-12T06:51:39;1.23;;;1.10;;
9892;SDS011;4985;49.092;8.542;2022-07-12T06:54:05;8.95;;;1.20;;
9892;SDS011;4985;49.092;8.542;2022-07-12T06:56:32;4.75;;;1.15;;
9892;SDS011;4985;49.092;8.542;2022-07-12T06:58:58;3.22;;;0.95;;
9892;SDS011;4985;49.092;8.542;2022-07-12T07:01:25;2.85;;;1.77;;
9892;SDS011;4985;49.092;8.542;2022-07-12T07:03:52;2.22;;;1.00;;
9892;SDS011;4985;49.092;8.542;2022-07-12T07:06:18;0.88;;;0.88;;
9892;SDS011;4985;49.092;8.542;2022-07-12T07:08:46;1.48;;;1.00;;
9892;SDS011;4985;49.092;8.542;2022-07-12T07:11:13;1.20;;;0.90;;
9892;SDS011;4985;49.092;8.542;2022-07-12T07:13:39;1.00;;;0.90;;
9892;SDS011;4985;49.092;8.542;2022-07-12T07:16:06;1.00;;;0.90;;
9892;SDS011;4985;49.092;8.542;2022-07-12T07:18:34;1.02;;;0.95;;
9892;SDS011;4985;49.092;8.542;2022-07-12T07:21:00;1.05;;;0.95;;
9892;SDS011;4985;49.092;8.542;2022-07-12T07:23:27;1.00;;;0.90;;
9892;SDS011;4985;49.092;8.542;2022-07-12T07:25:55;0.80;;;0.80;;
9892;SDS011;4985;49.092;8.542;2022-07-12T07:28:22;0.80;;;0.80;;
9892;SDS011;4985;49.092;8.542;2022-07-12T07:30:48;1.12;;;0.80;;
9892;SDS011;4985;49.092;8.542;2022-07-12T07:33:17;0.65;;;0.65;;
9892;SDS011;4985;49.092;8.542;2022-07-12T07:35:44;0.65;;;0.65;;
9892;SDS011;4985;49.092;8.542;2022-07-12T07:38:10;2.15;;;1.00;;
9892;SDS011;4985;49.092;8.542;2022-07-12T07:40:37;0.80;;;0.80;;
9892;SDS011;4985;49.092;8.542;2022-07-12T07:43:05;1.00;;;0.93;;
9892;SDS011;4985;49.092;8.542;2022-07-12T07:45:31;0.85;;;0.85;;
9892;SDS011;4985;49.092;8.542;2022-07-12T07:47:58;1.35;;;0.65;;
9892;SDS011;4985;49.092;8.542;2022-07-12T07:50:24;1.35;;;1.17;;
9892;SDS011;4985;49.092;8.542;2022-07-12T07:52:51;0.80;;;0.80;;
9892;SDS011;4985;49.092;8.542;2022-07-12T07:55:18;0.50;;;0.50;;
9892;SDS011;4985;49.092;8.542;2022-07-12T07:57:45;0.90;;;0.90;;
9892;SDS011;4985;49.092;8.542;2022-07-12T08:00:14;0.77;;;0.77;;
9892;SDS011;4985;49.092;8.542;2022-07-12T08:02:41;0.80;;;0.80;;
9892;SDS011;4985;49.092;8.542;2022-07-12T08:05:07;0.80;;;0.80;;
9892;SDS011;4985;49.092;8.542;2022-07-12T08:07:34;0.60;;;0.60;;
9892;SDS011;4985;49.092;8.542;2022-07-12T08:10:01;0.68;;;0.68;;
9892;SDS011;4985;49.092;8.542;2022-07-12T08:12:28;0.70;;;0.70;;
9892;SDS011;4985;49.092;8.542;2022-07-12T08:14:54;1.00;;;0.70;;
9892;SDS011;4985;49.092;8.542;2022-07-12T08:17:22;2.22;;;0.85;;
9892;SDS011;4985;49.092;8.542;2022-07-12T08:19:49;0.60;;;0.60;;
9892;SDS011;4985;49.092;8.542;2022-07-12T08:22:16;1.15;;;0.88;;
9892;SDS011;4985;49.092;8.542;2022-07-12T08:24:42;0.70;;;0.70;;
9892;SDS011;4985;49.092;8.542;2022-07-12T08:27:09;1.37;;;0.73;;
9892;SDS011;4985;49.092;8.542;2022-07-12T08:29:35;1.20;;;0.82;;
9892;SDS011;4985;49.092;8.542;2022-07-12T08:32:02;0.82;;;0.80;;
9892;SDS011;4985;49.092;8.542;2022-07-12T08:34:32;1.48;;;0.75;;
9892;SDS011;4985;49.092;8.542;2022-07-12T08:36:58;0.70;;;0.70;;
9892;SDS011;4985;49.092;8.542;2022-07-12T08:39:25;0.73;;;0.73;;
9892;SDS011;4985;49.092;8.542;2022-07-12T08:41:51;1.15;;;0.68;;
9892;SDS011;4985;49.092;8.542;2022-07-12T08:44:18;0.77;;;0.77;;
9892;SDS011;4985;49.092;8.542;2022-07-12T08:46:44;0.60;;;0.60;;
9892;SDS011;4985;49.092;8.542;2022-07-12T08:49:12;0.88;;;0.88;;
9892;SDS011;4985;49.092;8.542;2022-07-12T08:51:40;1.12;;;0.90;;
9892;SDS011;4985;49.092;8.542;2022-07-12T08:54:08;1.48;;;0.80;;
9892;SDS011;4985;49.092;8.542;2022-07-12T08:56:37;0.90;;;0.77;;
9892;SDS011;4985;49.092;8.542;2022-07-12T08:59:08;1.62;;;0.70;;
9892;SDS011;4985;49.092;8.542;2022-07-12T09:01:39;0.77;;;0.70;;
9892;SDS011;4985;49.092;8.542;2022-07-12T09:04:11;1.27;;;0.77;;
9892;SDS011;4985;49.092;8.542;2022-07-12T09:06:40;4.90;;;0.90;;
9892;SDS011;4985;49.092;8.542;2022-07-12T09:09:07;0.60;;;0.60;;
9892;SDS011;4985;49.092;8.542;2022-07-12T09:11:37;1.40;;;0.90;;
9892;SDS011;4985;49.092;8.542;2022-07-12T09:14:05;0.62;;;0.60;;
9892;SDS011;4985;49.092;8.542;2022-07-12T09:16:32;0.60;;;0.60;;
9892;SDS011;4985;49.092;8.542;2022-07-12T09:19:12;0.60;;;0.60;;
9892;SDS011;4985;49.092;8.542;2022-07-12T09:21:47;1.17;;;0.80;;
9892;SDS011;4985;49.092;8.542;2022-07-12T09:24:15;0.60;;;0.60;;
9892;SDS011;4985;49.092;8.542;2022-07-12T09:26:42;0.70;;;0.70;;
9892;SDS011;4985;49.092;8.542;2022-07-12T09:29:10;0.50;;;0.50;;
9892;SDS011;4985;49.092;8.542;2022-07-12T09:31:38;0.95;;;0.75;;
9892;SDS011;4985;49.092;8.542;2022-07-12T09:34:26;0.93;;;0.80;;
9892;SDS011;4985;49.092;8.542;2022-07-12T09:37:12;1.00;;;0.62;;
9892;SDS011;4985;49.092;8.542;2022-07-12T09:39:38;0.85;;;0.75;;
9892;SDS011;4985;49.092;8.542;2022-07-12T09:42:05;0.70;;;0.70;;
9892;SDS011;4985;49.092;8.542;2022-07-12T09:44:34;0.60;;;0.60;;
9892;SDS011;4985;49.092;8.542;2022-07-12T09:47:01;0.95;;;0.82;;
9892;SDS011;4985;49.092;8.542;2022-07-12T09:49:28;0.70;;;0.70;;
9892;SDS011;4985;49.092;8.542;2022-07-12T09:51:55;0.70;;;0.70;;
9892;SDS011;4985;49.092;8.542;2022-07-12T09:54:26;0.70;;;0.70;;
9892;SDS011;4985;49.092;8.542;2022-07-12T09:56:54;0.60;;;0.60;;
9892;SDS011;4985;49.092;8.542;2022-07-12T09:59:24;4.15;;;0.85;;
9892;SDS011;4985;49.092;8.542;2022-07-12T10:01:54;0.77;;;0.77;;
9892;SDS011;4985;49.092;8.542;2022-07-12T10:04:24;1.00;;;0.70;;
9892;SDS011;4985;49.092;8.542;2022-07-12T10:06:55;0.50;;;0.50;;
9892;SDS011;4985;49.092;8.542;2022-07-12T10:09:22;0.85;;;0.70;;
9892;SDS011;4985;49.092;8.542;2022-07-12T10:11:51;0.60;;;0.60;;
9892;SDS011;4985;49.092;8.542;2022-07-12T10:14:18;1.40;;;0.70;;
9892;SDS011;4985;49.092;8.542;2022-07-12T10:16:46;1.00;;;0.70;;
9892;SDS011;4985;49.092;8.542;2022-07-12T10:19:20;0.45;;;0.45;;
9892;SDS011;4985;49.092;8.542;2022-07-12T10:21:48;0.70;;;0.60;;
9892;SDS011;4985;49.092;8.542;2022-07-12T10:27:31;0.98;;;0.57;;
9892;SDS011;4985;49.092;8.542;2022-07-12T10:30:15;0.60;;;0.60;;
9892;SDS011;4985;49.092;8.542;2022-07-12T10:32:46;1.70;;;0.70;;
9892;SDS011;4985;49.092;8.542;2022-07-12T10:35:18;0.98;;;0.70;;
9892;SDS011;4985;49.092;8.542;2022-07-12T10:40:44;0.70;;;0.60;;
9892;SDS011;4985;49.092;8.542;2022-07-12T10:43:17;1.10;;;0.65;;
9892;SDS011;4985;49.092;8.542;2022-07-12T10:45:46;0.80;;;0.80;;
9892;SDS011;4985;49.092;8.542;2022-07-12T10:48:20;0.68;;;0.68;;
9892;SDS011;4985;49.092;8.542;2022-07-12T10:50:52;0.88;;;0.82;;
9892;SDS011;4985;49.092;8.542;2022-07-12T10:53:22;0.93;;;0.52;;
9892;SDS011;4985;49.092;8.542;2022-07-12T10:56:08;0.75;;;0.60;;
9892;SDS011;4985;49.092;8.542;2022-07-12T10:58:38;1.37;;;0.73;;
9892;SDS011;4985;49.092;8.542;2022-07-12T11:01:07;0.60;;;0.60;;
9892;SDS011;4985;49.092;8.542;2022-07-12T11:03:38;0.60;;;0.60;;
9892;SDS011;4985;49.092;8.542;2022-07-12T11:06:06;0.98;;;0.80;;
9892;SDS011;4985;49.092;8.542;2022-07-12T11:08:47;0.60;;;0.60;;
9892;SDS011;4985;49.092;8.542;2022-07-12T11:11:15;1.62;;;0.50;;
9892;SDS011;4985;49.092;8.542;2022-07-12T11:13:43;6.82;;;1.35;;
9892;SDS011;4985;49.092;8.542;2022-07-12T11:16:10;0.65;;;0.65;;
9892;SDS011;4985;49.092;8.542;2022-07-12T11:18:36;0.80;;;0.60;;
9892;SDS011;4985;49.092;8.542;2022-07-12T11:21:04;0.70;;;0.70;;
9892;SDS011;4985;49.092;8.542;2022-07-12T11:23:31;0.98;;;0.93;;
9892;SDS011;4985;49.092;8.542;2022-07-12T11:26:00;0.85;;;0.70;;
9892;SDS011;4985;49.092;8.542;2022-07-12T11:28:29;1.48;;;0.60;;
9892;SDS011;4985;49.092;8.542;2022-07-12T11:31:02;0.70;;;0.70;;
9892;SDS011;4985;49.092;8.542;2022-07-12T11:33:31;0.65;;;0.65;;
9892;SDS011;4985;49.092;8.542;2022-07-12T11:35:59;0.50;;;0.50;;
9892;SDS011;4985;49.092;8.542;2022-07-12T11:38:28;0.50;;;0.50;;
9892;SDS011;4985;49.092;8.542;2022-07-12T11:40:55;0.70;;;0.70;;
9892;SDS011;4985;49.092;8.542;2022-07-12T11:43:22;0.70;;;0.70;;
9892;SDS011;4985;49.092;8.542;2022-07-12T11:45:50;1.45;;;0.55;;
9892;SDS011;4985;49.092;8.542;2022-07-12T11:48:19;0.65;;;0.65;;
9892;SDS011;4985;49.092;8.542;2022-07-12T11:50:46;0.93;;;0.70;;
9892;SDS011;4985;49.092;8.542;2022-07-12T11:53:16;0.70;;;0.70;;
9892;SDS011;4985;49.092;8.542;2022-07-12T11:55:44;0.70;;;0.70;;
9892;SDS011;4985;49.092;8.542;2022-07-12T11:58:12;0.88;;;0.73;;
9892;SDS011;4985;49.092;8.542;2022-07-12T12:00:39;0.73;;;0.57;;
9892;SDS011;4985;49.092;8.542;2022-07-12T12:03:06;0.73;;;0.73;;
9892;SDS011;4985;49.092;8.542;2022-07-12T12:05:34;0.65;;;0.65;;
9892;SDS011;4985;49.092;8.542;2022-07-12T12:08:02;0.77;;;0.70;;
9892;SDS011;4985;49.092;8.542;2022-07-12T12:10:29;3.58;;;0.75;;
9892;SDS011;4985;49.092;8.542;2022-07-12T12:12:57;1.98;;;0.70;;
9892;SDS011;4985;49.092;8.542;2022-07-12T12:15:25;0.62;;;0.62;;
9892;SDS011;4985;49.092;8.542;2022-07-12T12:17:53;2.58;;;0.70;;
9892;SDS011;4985;49.092;8.542;2022-07-12T12:20:21;0.70;;;0.70;;
9892;SDS011;4985;49.092;8.542;2022-07-12T12:22:51;1.42;;;0.73;;
9892;SDS011;4985;49.092;8.542;2022-07-12T12:25:19;3.03;;;0.68;;
9892;SDS011;4985;49.092;8.542;2022-07-12T12:27:46;0.70;;;0.65;;
9892;SDS011;4985;49.092;8.542;2022-07-12T12:30:15;0.60;;;0.60;;
9892;SDS011;4985;49.092;8.542;2022-07-12T12:32:44;0.65;;;0.65;;
9892;SDS011;4985;49.092;8.542;2022-07-12T12:35:12;0.60;;;0.60;;
9892;SDS011;4985;49.092;8.542;2022-07-12T12:37:39;1.70;;;0.90;;
9892;SDS011;4985;49.092;8.542;2022-07-12T12:40:08;1.60;;;1.17;;
9892;SDS011;4985;49.092;8.542;2022-07-12T12:42:36;0.95;;;0.90;;
9892;SDS011;4985;49.092;8.542;2022-07-12T12:45:03;1.25;;;0.80;;
9892;SDS011;4985;49.092;8.542;2022-07-12T12:47:30;0.73;;;0.70;;
9892;SDS011;4985;49.092;8.542;2022-07-12T12:50:16;0.70;;;0.70;;
9892;SDS011;4985;49.092;8.542;2022-07-12T12:52:47;0.60;;;0.60;;
9892;SDS011;4985;49.092;8.542;2022-07-12T12:55:15;0.68;;;0.68;;
9892;SDS011;4985;49.092;8.542;2022-07-12T12:57:42;0.70;;;0.70;;
9892;SDS011;4985;49.092;8.542;2022-07-12T13:00:09;1.20;;;0.90;;
9892;SDS011;4985;49.092;8.542;2022-07-12T13:02:38;0.77;;;0.77;;
9892;SDS011;4985;49.092;8.542;2022-07-12T13:05:05;0.80;;;0.80;;
9892;SDS011;4985;49.092;8.542;2022-07-12T13:07:32;0.68;;;0.68;;
9892;SDS011;4985;49.092;8.542;2022-07-12T13:09:59;0.70;;;0.70;;
9892;SDS011;4985;49.092;8.542;2022-07-12T13:12:27;0.70;;;0.70;;
9892;SDS011;4985;49.092;8.542;2022-07-12T13:14:54;1.42;;;0.90;;
9892;SDS011;4985;49.092;8.542;2022-07-12T13:17:20;0.95;;;0.90;;
9892;SDS011;4985;49.092;8.542;2022-07-12T13:19:47;0.85;;;0.70;;
9892;SDS011;4985;49.092;8.542;2022-07-12T13:22:13;1.52;;;0.90;;
9892;SDS011;4985;49.092;8.542;2022-07-12T13:24:41;0.73;;;0.73;;
9892;SDS011;4985;49.092;8.542;2022-07-12T13:27:07;0.60;;;0.60;;
9892;SDS011;4985;49.092;8.542;2022-07-12T13:29:35;0.75;;;0.75;;
9892;SDS011;4985;49.092;8.542;2022-07-12T13:32:02;0.70;;;0.70;;
9892;SDS011;4985;49.092;8.542;2022-07-12T13:34:29;1.33;;;0.82;;
9892;SDS011;4985;49.092;8.542;2022-07-12T13:36:56;0.60;;;0.60;;
9892;SDS011;4985;49.092;8.542;2022-07-12T13:39:22;1.00;;;0.65;;
9892;SDS011;4985;49.092;8.542;2022-07-12T13:42:07;0.73;;;0.73;;
9892;SDS011;4985;49.092;8.542;2022-07-12T13:44:33;0.80;;;0.80;;
9892;SDS011;4985;49.092;8.542;2022-07-12T13:47:01;0.80;;;0.80;;
9892;SDS011;4985;49.092;8.542;2022-07-12T13:49:28;0.82;;;0.82;;
9892;SDS011;4985;49.092;8.542;2022-07-12T13:51:55;1.50;;;0.93;;
9892;SDS011;4985;49.092;8.542;2022-07-12T13:54:22;0.75;;;0.75;;
9892;SDS011;4985;49.092;8.542;2022-07-12T13:56:48;1.25;;;0.90;;
9892;SDS011;4985;49.092;8.542;2022-07-12T13:59:15;0.80;;;0.80;;
9892;SDS011;4985;49.092;8.542;2022-07-12T14:01:42;0.70;;;0.70;;
9892;SDS011;4985;49.092;8.542;2022-07-12T14:04:10;1.50;;;0.70;;
9892;SDS011;4985;49.092;8.542;2022-07-12T14:06:37;0.80;;;0.80;;
9892;SDS011;4985;49.092;8.542;2022-07-12T14:09:04;0.77;;;0.75;;
9892;SDS011;4985;49.092;8.542;2022-07-12T14:11:31;1.92;;;0.85;;
9892;SDS011;4985;49.092;8.542;2022-07-12T14:13:59;0.95;;;0.82;;
9892;SDS011;4985;49.092;8.542;2022-07-12T14:16:26;0.90;;;0.90;;
9892;SDS011;4985;49.092;8.542;2022-07-12T14:18:52;2.22;;;0.88;;
9892;SDS011;4985;49.092;8.542;2022-07-12T14:21:20;0.70;;;0.70;;
9892;SDS011;4985;49.092;8.542;2022-07-12T14:23:47;0.60;;;0.60;;
9892;SDS011;4985;49.092;8.542;2022-07-12T14:26:14;1.00;;;0.90;;
9892;SDS011;4985;49.092;8.542;2022-07-12T14:28:40;0.98;;;0.90;;
9892;SDS011;4985;49.092;8.542;2022-07-12T14:31:07;0.70;;;0.70;;
9892;SDS011;4985;49.092;8.542;2022-07-12T14:33:33;2.25;;;1.00;;
9892;SDS011;4985;49.092;8.542;2022-07-12T14:36:00;0.60;;;0.60;;
9892;SDS011;4985;49.092;8.542;2022-07-12T14:38:28;0.70;;;0.70;;
9892;SDS011;4985;49.092;8.542;2022-07-12T14:40:55;1.87;;;0.90;;
9892;SDS011;4985;49.092;8.542;2022-07-12T14:43:22;0.65;;;0.65;;
9892;SDS011;4985;49.092;8.542;2022-07-12T14:45:48;0.70;;;0.70;;
9892;SDS011;4985;49.092;8.542;2022-07-12T14:48:15;1.92;;;0.82;;
9892;SDS011;4985;49.092;8.542;2022-07-12T14:50:41;1.02;;;0.60;;
9892;SDS011;4985;49.092;8.542;2022-07-12T14:53:08;1.17;;;0.75;;
9892;SDS011;4985;49.092;8.542;2022-07-12T14:55:36;0.80;;;0.80;;
9892;SDS011;4985;49.092;8.542;2022-07-12T14:58:02;0.80;;;0.80;;
9892;SDS011;4985;49.092;8.542;2022-07-12T15:00:31;2.10;;;1.05;;
9892;SDS011;4985;49.092;8.542;2022-07-12T15:02:58;0.70;;;0.70;;
9892;SDS011;4985;49.092;8.542;2022-07-12T15:05:25;0.73;;;0.73;;
9892;SDS011;4985;49.092;8.542;2022-07-12T15:07:52;1.02;;;0.93;;
9892;SDS011;4985;49.092;8.542;2022-07-12T15:10:19;0.85;;;0.77;;
9892;SDS011;4985;49.092;8.542;2022-07-12T15:12:47;0.90;;;0.90;;
9892;SDS011;4985;49.092;8.542;2022-07-12T15:15:13;0.80;;;0.80;;
9892;SDS011;4985;49.092;8.542;2022-07-12T15:17:40;4.32;;;0.80;;
9892;SDS011;4985;49.092;8.542;2022-07-12T15:20:07;1.55;;;0.60;;
9892;SDS011;4985;49.092;8.542;2022-07-12T15:22:34;0.90;;;0.90;;
9892;SDS011;4985;49.092;8.542;2022-07-12T15:25:01;0.80;;;0.80;;